Estación Meteorológica Peña el Pijo (Robertgarden) [ 11/12/18 20:33:57 CET ]

Fecha Hora Presion(HPa) Temp (°C) Humedad % Rocio (°C) Viento ( m/s) Direccion Lluvia 1Hora(mm) Lluvia 24H(mm) LLuvia Total(mm)
2018-Jul-24 01:01:50 1011.400 16.9 60 9.1         269.36
2018-Jul-24 02:01:44 1011.100 15.8 65 9.2         269.36
2018-Jul-24 03:01:38 1010.700 14.9 67 8.8         269.36
2018-Jul-24 04:01:38 1010.400 15.5 67 9.4         269.36
2018-Jul-24 05:01:34 1010.200 14.9 69 9.3         269.36
2018-Jul-24 06:01:33 1010.400 15.6 66 9.3         269.36
2018-Jul-24 07:01:42 1010.600 14.9 69 9.3         269.36
2018-Jul-24 08:01:44 1010.700 15.9 70 10.5         269.36
2018-Jul-24 09:01:41 1010.600 22.1 59 13.7         269.36
2018-Jul-24 10:01:54 1010.400 27.3 42 13.2         269.36
2018-Jul-24 11:01:53 1010.200 30.9 35 13.6         269.36
2018-Jul-24 12:01:44 1009.800 33.9 26 11.5         269.36
2018-Jul-24 13:01:46 1009.600 36.3 21 10.4 2.9 S     269.36
2018-Jul-24 14:01:49 1009.200 35.2 20 8.9         269.36
2018-Jul-24 15:01:54 1008.500 36.2 18 7.8         269.36
2018-Jul-24 16:01:56 1008.100 38.6 16 7.6         269.36
2018-Jul-24 17:01:40 1008.100 38.4 17 8.5         269.36
2018-Jul-24 18:01:38 1007.800 36.8 17 7.3 1.0 N     269.36
2018-Jul-24 19:01:34 1007.800 34.6 19 7.4         269.36
2018-Jul-24 20:01:39 1008.300 32.1 19 5.4         269.36
2018-Jul-24 21:01:12 1009.100 28.4 23 5.1         269.36
2018-Jul-24 22:01:37 1009.700 23.4 33 6.1         269.36
2018-Jul-24 23:01:38 1010.700 19.9 41 6.2         269.36

Temperatura Máxima:38°    Temperatura Mínima:14°
Presión Máxima:1011.400 Hpa    Presión Mínima:1007.800 Hpa


Volver